Time;durP1;ratioP1;P1;durP2;ratioP2;P2;SDS_P1;SDS_P2;PMS_P1;PMS_P2;Temp;Humidity;BMP_temperature;BMP_pressure;BME280_temperature;BME280_humidity;BME280_pressure;Samples;Min_cycle;Max_cycle;Signal;HPM_P1;HPM_P2
2021/05/04 00:01:26;;;;;;;6.53;3.88;;;;;;;6.72;94.11;98260.56;4971277;28;20411;-80
2021/05/04 00:03:52;;;;;;;6.10;5.07;;;;;;;6.67;94.56;98255.13;4969759;28;20023;-81
2021/05/04 00:06:17;;;;;;;6.63;4.68;;;;;;;6.66;94.77;98254.28;4969589;28;20034;-80
2021/05/04 00:08:43;;;;;;;5.55;4.53;;;;;;;6.61;95.39;98251.53;4970307;28;20039;-80
2021/05/04 00:11:08;;;;;;;8.48;4.68;;;;;;;6.73;94.93;98257.59;4970726;28;20078;-78
2021/05/04 00:13:34;;;;;;;8.02;5.03;;;;;;;6.48;94.89;98250.09;4971105;28;20035;-79
2021/05/04 00:15:59;;;;;;;7.85;4.30;;;;;;;6.37;95.85;98256.53;4972789;28;20030;-80
2021/05/04 00:18:25;;;;;;;4.68;3.97;;;;;;;6.46;95.17;98259.59;4974147;28;20031;-81
2021/05/04 00:20:50;;;;;;;7.22;4.30;;;;;;;6.33;95.55;98257.31;4973458;28;20054;-79
2021/05/04 00:23:16;;;;;;;6.38;4.20;;;;;;;6.20;96.61;98255.06;4972042;28;20595;-77
2021/05/04 00:25:41;;;;;;;7.97;4.60;;;;;;;6.24;96.55;98251.56;4974003;28;20035;-80
2021/05/04 00:28:07;;;;;;;6.57;4.18;;;;;;;6.43;96.27;98254.69;4974853;28;20483;-80
2021/05/04 00:30:32;;;;;;;7.00;4.50;;;;;;;6.26;96.62;98252.13;4974435;28;20038;-78
2021/05/04 00:32:57;;;;;;;6.63;4.47;;;;;;;6.20;97.00;98260.50;4974655;28;20105;-80
2021/05/04 00:35:23;;;;;;;7.25;4.38;;;;;;;6.13;96.82;98241.72;4974881;28;20452;-82
2021/05/04 00:37:48;;;;;;;6.32;4.05;;;;;;;6.13;97.03;98254.47;4974979;28;20037;-82
2021/05/04 00:40:14;;;;;;;8.25;3.70;;;;;;;6.13;97.39;98259.88;4974398;28;20034;-81
2021/05/04 00:42:40;;;;;;;5.20;3.78;;;;;;;6.13;97.14;98241.72;4972649;28;20037;-80
2021/05/04 00:45:06;;;;;;;7.38;5.03;;;;;;;6.15;96.55;98255.00;4972637;28;20027;-81
2021/05/04 00:47:32;;;;;;;6.30;4.50;;;;;;;6.10;96.49;98239.50;4972490;28;20061;-81
2021/05/04 00:49:57;;;;;;;6.10;4.78;;;;;;;6.24;95.61;98259.69;4974209;28;20469;-78
2021/05/04 00:52:23;;;;;;;6.13;4.65;;;;;;;6.19;96.17;98248.00;4972241;28;20476;-79
2021/05/04 00:54:49;;;;;;;6.60;4.05;;;;;;;6.17;95.78;98240.09;4974233;28;20034;-81
2021/05/04 00:57:16;;;;;;;5.38;4.20;;;;;;;6.25;95.89;98253.19;4972960;28;20046;-80
2021/05/04 00:59:46;;;;;;;4.70;4.30;;;;;;;6.24;95.67;98243.41;4973044;28;20125;-82
2021/05/04 01:02:12;;;;;;;6.13;4.45;;;;;;;6.20;95.69;98241.50;4971901;28;20038;-79
2021/05/04 01:04:39;;;;;;;6.78;4.28;;;;;;;6.30;95.18;98231.50;4974299;28;20038;-81
2021/05/04 01:07:05;;;;;;;5.70;4.63;;;;;;;6.06;96.20;98237.56;4972409;28;20566;-80
2021/05/04 01:09:30;;;;;;;5.60;4.15;;;;;;;6.08;96.47;98235.38;4973352;28;20042;-79
2021/05/04 01:11:56;;;;;;;5.15;3.90;;;;;;;6.15;96.27;98239.53;4972405;28;20033;-80
2021/05/04 01:14:23;;;;;;;6.78;4.25;;;;;;;5.97;96.21;98242.66;4973510;28;20039;-80
2021/05/04 01:16:54;;;;;;;5.38;3.83;;;;;;;5.88;97.47;98236.06;4971923;28;20035;-79
2021/05/04 01:19:20;;;;;;;6.05;5.25;;;;;;;5.89;97.56;98237.69;4972716;28;20023;-80
2021/05/04 01:21:45;;;;;;;7.97;4.97;;;;;;;5.73;98.28;98236.69;4972664;28;20482;-78
2021/05/04 01:24:12;;;;;;;6.95;4.82;;;;;;;5.68;99.05;98220.38;4971468;28;20034;-82
2021/05/04 01:26:43;;;;;;;6.75;4.18;;;;;;;5.94;98.47;98232.31;4972087;28;20030;-82
2021/05/04 01:29:10;;;;;;;4.65;3.80;;;;;;;5.89;97.86;98227.66;4973095;28;20034;-81
2021/05/04 01:31:35;;;;;;;5.70;4.43;;;;;;;5.89;97.97;98227.66;4972095;28;20043;-82
2021/05/04 01:34:06;;;;;;;5.90;4.57;;;;;;;5.73;98.35;98211.47;4968496;28;20034;-84
2021/05/04 01:36:32;;;;;;;6.60;5.30;;;;;;;5.86;98.11;98221.91;4970021;28;20119;-79
2021/05/04 01:38:57;;;;;;;9.75;5.20;;;;;;;5.97;98.10;98225.53;4973587;28;20174;-76
2021/05/04 01:41:23;;;;;;;6.18;4.97;;;;;;;5.84;98.24;98219.44;4973516;28;20030;-81
2021/05/04 01:43:51;;;;;;;5.43;4.03;;;;;;;5.81;98.46;98216.41;4988333;28;20089;-80
2021/05/04 01:46:16;;;;;;;5.93;4.53;;;;;;;5.59;99.72;98211.06;4973297;28;20056;-78
2021/05/04 01:48:42;;;;;;;6.55;5.28;;;;;;;5.67;100.00;98204.38;4973254;28;20027;-79
2021/05/04 01:51:07;;;;;;;6.25;4.88;;;;;;;5.95;100.00;98214.97;4973494;28;20023;-81
2021/05/04 01:53:33;;;;;;;7.70;5.10;;;;;;;5.64;99.95;98204.88;4975074;28;20030;-80
2021/05/04 01:55:59;;;;;;;11.68;5.68;;;;;;;5.55;100.00;98203.69;4977491;28;20065;-81
2021/05/04 01:58:24;;;;;;;6.93;5.45;;;;;;;5.56;100.00;98194.47;4976109;28;20763;-81
2021/05/04 02:00:50;;;;;;;8.50;6.93;;;;;;;5.38;100.00;98193.78;4978899;28;20030;-82
2021/05/04 02:03:15;;;;;;;7.63;5.72;;;;;;;5.32;100.00;98186.69;4979958;28;20019;-82
2021/05/04 02:05:41;;;;;;;11.50;5.72;;;;;;;5.46;100.00;98178.91;4976881;28;20049;-80
2021/05/04 02:08:06;;;;;;;8.25;6.07;;;;;;;5.25;100.00;98188.75;4972766;28;20035;-81
2021/05/04 02:10:32;;;;;;;8.40;6.38;;;;;;;5.16;100.00;98175.91;4974587;28;20434;-82
2021/05/04 02:12:57;;;;;;;7.47;6.50;;;;;;;5.10;100.00;98176.94;4972925;28;20440;-79
2021/05/04 02:15:23;;;;;;;7.82;6.55;;;;;;;5.04;100.00;98178.78;4973127;28;20030;-81
2021/05/04 02:17:48;;;;;;;13.13;6.35;;;;;;;5.12;100.00;98175.59;4973471;28;20030;-83
2021/05/04 02:20:14;;;;;;;8.85;6.28;;;;;;;5.39;100.00;98167.47;4973476;28;20030;-83
2021/05/04 02:22:39;;;;;;;13.60;5.78;;;;;;;5.46;100.00;98168.06;4973017;28;20021;-81
2021/05/04 02:25:06;;;;;;;11.82;5.35;;;;;;;5.50;100.00;98171.09;4972918;28;20038;-78
2021/05/04 02:27:33;;;;;;;7.10;5.10;;;;;;;5.35;100.00;98164.47;4972867;28;20089;-81
2021/05/04 02:29:59;;;;;;;7.35;4.65;;;;;;;5.25;100.00;98175.19;4972988;28;20438;-80
2021/05/04 02:32:24;;;;;;;7.38;4.80;;;;;;;5.29;100.00;98162.75;4972609;28;20051;-79
2021/05/04 02:34:50;;;;;;;7.35;5.65;;;;;;;5.19;100.00;98161.84;4972549;28;20085;-79
2021/05/04 02:37:15;;;;;;;9.48;4.88;;;;;;;5.03;100.00;98169.00;4971948;28;20031;-79
2021/05/04 02:39:40;;;;;;;6.32;4.20;;;;;;;5.03;100.00;98160.88;4972643;28;20034;-81
2021/05/04 02:42:06;;;;;;;6.28;4.30;;;;;;;5.03;100.00;98158.16;4972182;28;20027;-81
2021/05/04 02:44:31;;;;;;;7.30;4.60;;;;;;;4.97;100.00;98152.94;4973364;28;20034;-82
2021/05/04 02:46:58;;;;;;;7.72;4.53;;;;;;;4.92;100.00;98142.03;4973289;28;20178;-83
2021/05/04 02:49:23;;;;;;;4.88;4.25;;;;;;;4.96;100.00;98152.13;4972375;28;20023;-82
2021/05/04 02:51:49;;;;;;;5.78;4.55;;;;;;;4.96;100.00;98152.13;4972037;28;20056;-81
2021/05/04 02:54:14;;;;;;;4.57;4.13;;;;;;;4.89;100.00;98154.19;4970567;28;20027;-83
2021/05/04 02:56:40;;;;;;;6.07;4.38;;;;;;;4.97;100.00;98153.75;4971550;28;20027;-82
2021/05/04 02:59:05;;;;;;;5.68;3.60;;;;;;;4.85;100.00;98153.09;4970721;28;20077;-82
2021/05/04 03:01:30;;;;;;;5.60;4.25;;;;;;;4.81;100.00;98149.22;4971468;28;20070;-79
2021/05/04 03:03:56;;;;;;;5.30;4.25;;;;;;;4.85;100.00;98139.53;4972056;28;20081;-79
2021/05/04 03:06:21;;;;;;;5.20;4.00;;;;;;;5.03;100.00;98144.59;4972545;28;20023;-78
2021/05/04 03:08:47;;;;;;;6.72;4.28;;;;;;;4.92;99.89;98134.72;4972185;28;20086;-78
2021/05/04 03:11:12;;;;;;;5.55;4.28;;;;;;;4.86;100.00;98124.88;4971280;28;20041;-79
2021/05/04 03:13:38;;;;;;;8.13;4.15;;;;;;;5.10;99.72;98139.81;4972955;28;20114;-77
2021/05/04 03:16:04;;;;;;;4.75;4.00;;;;;;;4.95;99.41;98120.66;4975871;28;20039;-77
2021/05/04 03:18:29;;;;;;;10.13;4.60;;;;;;;4.99;99.93;98127.22;4982855;28;20480;-81
2021/05/04 03:20:55;;;;;;;6.25;4.45;;;;;;;4.89;99.91;98135.22;4982200;28;20027;-78
2021/05/04 03:23:21;;;;;;;6.97;4.85;;;;;;;4.90;100.00;98126.03;4973280;28;20031;-79
2021/05/04 03:25:47;;;;;;;5.38;4.70;;;;;;;4.75;100.00;98128.56;4971197;28;20038;-79
2021/05/04 03:28:14;;;;;;;8.60;5.70;;;;;;;4.70;100.00;98123.06;4971886;28;20407;-79
2021/05/04 03:30:39;;;;;;;9.88;7.15;;;;;;;4.64;100.00;98126.81;4970774;28;20019;-77
2021/05/04 03:33:05;;;;;;;16.65;6.85;;;;;;;4.56;100.00;98125.38;4970731;28;20086;-78
2021/05/04 03:35:31;;;;;;;8.70;5.90;;;;;;;4.61;100.00;98111.06;4970534;28;20069;-79
2021/05/04 03:37:57;;;;;;;13.98;6.80;;;;;;;4.60;100.00;98120.28;4971326;28;20058;-80
2021/05/04 03:40:24;;;;;;;10.23;7.05;;;;;;;4.51;100.00;98121.78;4970256;28;20058;-79
2021/05/04 03:42:50;;;;;;;10.18;6.15;;;;;;;4.53;100.00;98114.22;4971610;28;20033;-82
2021/05/04 03:45:15;;;;;;;13.63;6.35;;;;;;;4.46;100.00;98103.56;4970495;28;20027;-79
2021/05/04 03:47:42;;;;;;;10.13;6.20;;;;;;;4.59;100.00;98115.91;4971752;28;20037;-78
2021/05/04 03:50:11;;;;;;;11.02;6.57;;;;;;;4.61;100.00;98128.13;4970995;28;20058;-78
2021/05/04 03:52:37;;;;;;;9.32;7.22;;;;;;;4.57;100.00;98108.06;4974921;28;20031;-78
2021/05/04 03:55:04;;;;;;;11.27;6.88;;;;;;;4.65;100.00;98112.19;4975263;28;20031;-79
2021/05/04 03:57:29;;;;;;;10.38;6.60;;;;;;;4.60;100.00;98095.91;4975582;28;20035;-79
2021/05/04 03:59:55;;;;;;;8.68;6.47;;;;;;;4.62;100.00;98099.16;4974913;28;20085;-78
2021/05/04 04:02:20;;;;;;;10.93;5.80;;;;;;;4.70;100.00;98109.53;4974076;28;20414;-77
2021/05/04 04:04:46;;;;;;;;;;;;;;;4.91;100.00;98121.44;4975705;28;20025;-82
2021/05/04 04:07:11;;;;;;;9.10;5.38;;;;;;;5.07;99.38;98110.50;4975706;28;20462;-78
2021/05/04 04:09:36;;;;;;;9.48;4.57;;;;;;;4.99;99.44;98112.84;4973533;28;20115;-82
2021/05/04 04:12:02;;;;;;;8.95;6.63;;;;;;;5.02;99.77;98107.72;4974927;28;20031;-79
2021/05/04 04:14:29;;;;;;;8.40;5.63;;;;;;;5.02;99.84;98120.44;4974981;28;20542;-81
2021/05/04 04:16:54;;;;;;;8.10;5.45;;;;;;;5.02;100.00;98107.72;4975028;28;20023;-80
2021/05/04 04:19:19;;;;;;;9.90;5.60;;;;;;;4.96;99.82;98102.50;4975117;28;20034;-79
2021/05/04 04:21:45;;;;;;;11.38;8.35;;;;;;;4.89;100.00;98110.84;4974481;28;20023;-78
2021/05/04 04:24:11;;;;;;;13.18;8.45;;;;;;;5.03;100.00;98114.78;4974709;28;20019;-80
2021/05/04 04:26:36;;;;;;;17.30;10.68;;;;;;;5.15;100.00;98112.75;4974663;28;20025;-80
2021/05/04 04:29:02;;;;;;;25.10;10.38;;;;;;;5.16;100.00;98106.25;4974632;28;20526;-82
2021/05/04 04:31:29;;;;;;;13.30;9.18;;;;;;;5.28;100.00;98096.06;4973755;28;20051;-82
2021/05/04 04:33:54;;;;;;;10.73;8.32;;;;;;;5.29;100.00;98078.69;4973461;28;20065;-80
2021/05/04 04:36:19;;;;;;;20.20;10.65;;;;;;;5.29;100.00;98105.81;4972795;28;21179;-83
2021/05/04 04:38:45;;;;;;;13.80;7.97;;;;;;;5.16;100.00;98087.28;4973091;28;20031;-81
2021/05/04 04:41:10;;;;;;;17.80;9.65;;;;;;;5.20;100.00;98104.63;4973659;28;20015;-81
2021/05/04 04:43:36;;;;;;;18.83;10.45;;;;;;;5.16;100.00;98105.44;4973761;28;20034;-78
2021/05/04 04:46:01;;;;;;;12.50;8.00;;;;;;;5.21;100.00;98081.88;4973362;28;20027;-83
2021/05/04 04:48:26;;;;;;;19.92;8.88;;;;;;;5.45;100.00;98103.25;4973335;28;20027;-83
2021/05/04 04:50:52;;;;;;;25.95;13.20;;;;;;;5.44;100.00;98090.75;4972598;28;20364;-81
2021/05/04 04:53:17;;;;;;;24.40;11.68;;;;;;;5.34;100.00;98103.16;4971675;28;20023;-81
2021/05/04 04:55:43;;;;;;;18.73;9.98;;;;;;;5.28;100.00;98106.91;4972689;28;20070;-83
2021/05/04 04:58:08;;;;;;;28.73;10.18;;;;;;;5.11;100.00;98108.91;4972762;28;20357;-83
2021/05/04 05:00:33;;;;;;;14.90;9.77;;;;;;;5.36;100.00;98111.84;4971557;28;20039;-82
2021/05/04 05:02:59;;;;;;;15.10;9.95;;;;;;;5.51;100.00;98080.50;4965250;28;20109;-83
2021/05/04 05:05:27;;;;;;;20.38;8.82;;;;;;;5.73;100.00;98094.78;4971892;28;20087;-80
2021/05/04 05:07:52;;;;;;;13.93;8.80;;;;;;;5.63;100.00;98109.09;4970237;28;20030;-79
2021/05/04 05:10:17;;;;;;;19.40;10.48;;;;;;;5.60;100.00;98108.78;4971432;28;20507;-76
2021/05/04 05:12:43;;;;;;;23.67;9.23;;;;;;;5.43;100.00;98099.97;4971214;28;20039;-75
2021/05/04 05:15:09;;;;;;;16.65;10.27;;;;;;;5.59;100.00;98093.59;4975330;28;20103;-80
2021/05/04 05:17:34;;;;;;;22.10;10.02;;;;;;;5.53;100.00;98090.03;4973039;28;20030;-83
2021/05/04 05:20:00;;;;;;;18.83;10.25;;;;;;;5.69;100.00;98102.63;4970804;28;20170;-83
2021/05/04 05:22:28;;;;;;;19.65;9.93;;;;;;;5.55;100.00;98089.75;4971683;28;20034;-86
2021/05/04 05:24:55;;;;;;;15.32;9.73;;;;;;;5.45;100.00;98090.47;4976176;28;20061;-82
2021/05/04 05:27:22;;;;;;;14.77;9.48;;;;;;;5.84;100.00;98101.91;4973027;28;20053;-82
2021/05/04 05:29:47;;;;;;;19.05;9.55;;;;;;;5.87;100.00;98099.53;4977931;28;20058;-82
2021/05/04 05:32:13;;;;;;;18.23;8.70;;;;;;;6.07;99.13;98103.44;4970815;28;20137;-77
2021/05/04 05:34:39;;;;;;;14.52;9.40;;;;;;;6.06;99.21;98093.66;4972900;28;20034;-79
2021/05/04 05:37:04;;;;;;;12.93;8.65;;;;;;;6.10;98.30;98097.50;4978965;28;20044;-79
2021/05/04 05:39:30;;;;;;;13.27;9.32;;;;;;;6.36;97.89;98097.34;4974692;28;20435;-85
2021/05/04 05:41:55;;;;;;;15.15;9.23;;;;;;;6.79;95.36;98092.63;4973086;28;20121;-80
2021/05/04 05:44:22;;;;;;;12.90;9.15;;;;;;;7.06;93.44;98095.13;4972193;28;20106;-83
2021/05/04 05:46:49;;;;;;;12.07;8.15;;;;;;;6.80;93.22;98095.06;4971889;28;20514;-84
2021/05/04 05:49:14;;;;;;;9.75;6.43;;;;;;;7.07;91.80;98086.72;4970745;28;20447;-81
2021/05/04 05:51:39;;;;;;;13.93;7.65;;;;;;;6.89;92.46;98101.63;4975296;28;20027;-88
2021/05/04 05:54:05;;;;;;;15.00;8.27;;;;;;;6.79;92.58;98098.06;4977452;28;20028;-85
2021/05/04 05:56:34;;;;;;;12.88;7.13;;;;;;;7.07;91.88;98097.59;4974342;28;20065;-87
2021/05/04 05:58:59;;;;;;;11.52;6.68;;;;;;;7.21;90.88;98087.81;4974818;28;20550;-86
2021/05/04 06:01:24;;;;;;;11.13;7.72;;;;;;;7.44;89.71;98084.56;4973164;28;20027;-84
2021/05/04 06:03:50;;;;;;;10.80;7.47;;;;;;;7.62;88.87;98087.81;4986611;28;20464;-85
2021/05/04 06:06:17;;;;;;;8.27;6.80;;;;;;;8.15;85.57;98086.38;4973144;28;20471;-87
2021/05/04 06:08:44;;;;;;;11.80;7.90;;;;;;;7.92;86.20;98082.38;4974623;28;20054;-84
2021/05/04 06:11:09;;;;;;;11.40;7.65;;;;;;;8.06;85.80;98075.25;4974143;28;20050;-84
2021/05/04 06:13:35;;;;;;;9.77;7.70;;;;;;;8.39;83.77;98071.09;4972773;28;20479;-85
2021/05/04 06:16:00;;;;;;;11.65;7.78;;;;;;;8.39;83.75;98082.81;4973859;28;20022;-83
2021/05/04 06:18:25;;;;;;;9.18;7.00;;;;;;;8.42;84.31;98084.16;4973326;28;20072;-82
2021/05/04 06:20:51;;;;;;;9.77;6.95;;;;;;;8.56;83.17;98083.28;4971014;28;20114;-81
2021/05/04 06:23:16;;;;;;;13.85;7.90;;;;;;;8.69;82.69;98072.88;4972572;28;20029;-84
2021/05/04 06:25:42;;;;;;;10.73;7.75;;;;;;;9.25;79.74;98068.72;4974422;28;20042;-83
2021/05/04 06:28:09;;;;;;;9.25;6.30;;;;;;;9.31;78.87;98067.56;4973220;28;20033;-83
2021/05/04 06:30:36;;;;;;;8.65;6.32;;;;;;;9.50;79.11;98071.25;4953268;28;20102;-82
2021/05/04 06:33:10;;;;;;;8.93;6.47;;;;;;;9.97;76.48;98072.47;4953292;28;20039;-85
2021/05/04 06:35:38;;;;;;;10.75;6.90;;;;;;;9.96;76.30;98076.31;4953483;28;20577;-83
2021/05/04 06:38:04;;;;;;;6.63;5.93;;;;;;;10.27;75.22;98076.84;4954208;28;20043;-83
2021/05/04 06:40:31;;;;;;;9.43;6.30;;;;;;;10.32;74.28;98072.13;4954127;28;20035;-84
2021/05/04 06:42:56;;;;;;;7.85;6.15;;;;;;;10.61;75.27;98077.53;4954311;28;20027;-84
2021/05/04 06:45:22;;;;;;;9.38;6.10;;;;;;;10.63;73.81;98070.66;4954010;28;20023;-85
2021/05/04 06:47:48;;;;;;;12.95;6.85;;;;;;;10.57;75.02;98073.75;4953897;28;20487;-87
2021/05/04 06:50:13;;;;;;;16.10;7.13;;;;;;;10.58;73.40;98072.66;4954317;28;20039;-86
2021/05/04 06:52:39;;;;;;;8.88;5.90;;;;;;;10.43;74.00;98070.09;4952650;29;20130;-82
2021/05/04 06:55:04;;;;;;;11.10;6.32;;;;;;;11.04;73.74;98072.84;4955146;28;20029;-84
2021/05/04 06:57:30;;;;;;;7.07;5.75;;;;;;;10.65;73.22;98060.22;4972402;28;20050;-84
2021/05/04 06:59:55;;;;;;;12.85;7.97;;;;;;;10.16;75.20;98051.53;4971692;28;20027;-84
2021/05/04 07:02:21;;;;;;;16.27;8.95;;;;;;;10.41;75.96;98059.44;4971130;28;20030;-83
2021/05/04 07:04:46;;;;;;;11.40;8.73;;;;;;;10.66;74.99;98061.84;4972681;28;20089;-84
2021/05/04 07:07:12;;;;;;;11.35;8.77;;;;;;;10.57;75.61;98051.88;4973617;28;20058;-86
2021/05/04 07:09:37;;;;;;;13.00;9.45;;;;;;;10.11;76.62;98048.81;4973177;28;20019;-86
2021/05/04 07:12:04;;;;;;;9.95;8.32;;;;;;;10.23;76.07;98035.59;4972561;28;20023;-86
2021/05/04 07:14:31;;;;;;;14.25;9.00;;;;;;;10.34;75.42;98039.81;4972636;28;20438;-85
2021/05/04 07:17:00;;;;;;;11.05;9.20;;;;;;;10.35;75.91;98059.78;4969539;28;20081;-85
2021/05/04 07:19:25;;;;;;;10.32;8.48;;;;;;;10.39;75.46;98049.91;4978296;28;20018;-84
2021/05/04 07:21:51;;;;;;;12.00;8.73;;;;;;;10.28;75.58;98059.31;4992477;28;20395;-85
2021/05/04 07:24:16;;;;;;;11.43;9.00;;;;;;;10.75;75.31;98053.81;4981276;28;20112;-83
2021/05/04 07:26:42;;;;;;;11.85;8.45;;;;;;;10.83;74.56;98046.88;4977465;28;20069;-88
2021/05/04 07:29:07;;;;;;;10.75;8.68;;;;;;;10.62;75.47;98038.09;4977344;28;20019;-85
2021/05/04 07:31:34;;;;;;;12.25;8.30;;;;;;;10.43;75.81;98051.75;4978226;28;20051;-85
2021/05/04 07:34:00;;;;;;;9.70;7.38;;;;;;;10.72;74.85;98043.44;4976239;28;20387;-84
2021/05/04 07:36:26;;;;;;;9.75;7.65;;;;;;;11.10;72.99;98038.81;4976532;28;20038;-85
2021/05/04 07:38:52;;;;;;;9.13;7.75;;;;;;;11.65;70.96;98048.88;4977578;28;20112;-87
2021/05/04 07:41:17;;;;;;;14.98;7.53;;;;;;;11.61;69.92;98031.44;4978498;28;20413;-84
2021/05/04 07:43:43;;;;;;;10.45;8.27;;;;;;;12.12;67.60;98038.78;4976783;28;20035;-86
2021/05/04 07:46:08;;;;;;;9.57;7.55;;;;;;;12.32;68.80;98041.09;4976171;28;20022;-85
2021/05/04 07:48:33;;;;;;;7.43;6.25;;;;;;;12.47;69.34;98034.53;4975771;28;20049;-82
2021/05/04 07:51:04;;;;;;;12.52;7.10;;;;;;;12.42;67.98;98038.16;4979378;28;20051;-85
2021/05/04 07:53:29;;;;;;;15.30;7.35;;;;;;;12.66;66.23;98033.28;4989509;28;20023;-85
2021/05/04 07:55:54;;;;;;;15.18;6.63;;;;;;;14.20;62.51;98032.84;4991097;28;20035;-83
2021/05/04 07:58:20;;;;;;;14.25;7.97;;;;;;;14.77;59.67;98034.56;4995848;28;20081;-82
2021/05/04 08:00:45;;;;;;;9.43;7.03;;;;;;;16.61;54.22;98034.53;4994291;28;20581;-82
2021/05/04 08:03:12;;;;;;;8.90;6.50;;;;;;;15.47;55.69;98022.47;4995071;28;20018;-82
2021/05/04 08:05:37;;;;;;;7.88;6.90;;;;;;;15.36;54.91;98021.97;4994729;28;20038;-83
2021/05/04 08:08:03;;;;;;;8.82;7.05;;;;;;;16.71;51.71;98016.78;4982999;28;20039;-82
2021/05/04 08:10:28;;;;;;;12.43;7.47;;;;;;;16.29;52.36;98011.09;4972088;28;20030;-85
2021/05/04 08:12:54;;;;;;;10.32;6.95;;;;;;;17.11;51.73;98016.03;4977247;28;20514;-85
2021/05/04 08:15:21;;;;;;;7.68;6.88;;;;;;;18.72;47.51;98007.56;4974192;28;20026;-84
2021/05/04 08:17:55;;;;;;;8.35;5.85;;;;;;;18.23;46.12;98003.13;4974694;28;20034;-83
2021/05/04 08:20:21;;;;;;;6.82;5.50;;;;;;;17.38;48.47;98005.59;4973967;28;20042;-83
2021/05/04 08:22:46;;;;;;;7.00;5.10;;;;;;;18.09;46.78;97990.41;4972339;28;20042;-82
2021/05/04 08:25:12;;;;;;;11.10;5.60;;;;;;;18.06;46.75;97991.09;4974307;28;20042;-82
2021/05/04 08:27:37;;;;;;;8.43;5.50;;;;;;;18.24;46.24;97993.66;4973892;28;20038;-82
2021/05/04 08:30:04;;;;;;;10.07;5.55;;;;;;;17.99;46.73;97985.31;4973057;28;20043;-79
2021/05/04 08:32:29;;;;;;;9.43;5.05;;;;;;;19.54;45.32;97983.97;4978216;28;20046;-81
2021/05/04 08:34:55;;;;;;;7.03;5.38;;;;;;;19.02;44.19;97981.19;4990775;28;20033;-82
2021/05/04 08:37:20;;;;;;;6.22;5.22;;;;;;;18.16;46.08;97971.28;4992637;28;20073;-80
2021/05/04 08:39:46;;;;;;;8.60;4.60;;;;;;;18.90;45.39;97970.13;4993346;28;20068;-82
2021/05/04 08:42:12;;;;;;;7.82;4.80;;;;;;;19.69;43.21;97968.50;4993708;28;20069;-81
2021/05/04 08:44:38;;;;;;;5.22;4.65;;;;;;;19.76;42.67;97963.97;4979786;28;20031;-81
2021/05/04 08:47:04;;;;;;;14.20;5.57;;;;;;;20.66;40.54;97956.75;4972829;28;20114;-80
2021/05/04 08:49:30;;;;;;;6.47;4.70;;;;;;;20.51;41.72;97961.19;4971654;28;20030;-79
2021/05/04 08:51:56;;;;;;;9.57;4.82;;;;;;;20.19;42.15;97949.22;4973675;28;20380;-80
2021/05/04 08:54:21;;;;;;;7.68;5.28;;;;;;;19.63;42.83;97939.41;4972681;28;20035;-81
2021/05/04 08:56:47;;;;;;;6.72;4.50;;;;;;;20.16;41.81;97943.56;4972844;28;20044;-81
2021/05/04 08:59:13;;;;;;;6.28;4.32;;;;;;;21.20;39.43;97940.13;4973239;28;20402;-80
2021/05/04 09:01:39;;;;;;;5.45;3.95;;;;;;;20.45;40.08;97934.00;4974172;28;20077;-80
2021/05/04 09:04:23;;;;;;;5.72;3.78;;;;;;;21.16;39.01;97936.47;4973249;28;20427;-81
2021/05/04 09:06:51;;;;;;;8.40;4.03;;;;;;;21.66;38.29;97932.72;4974219;28;20030;-79
2021/05/04 09:09:22;;;;;;;5.38;3.70;;;;;;;21.09;38.61;97925.97;4973395;28;20026;-80
2021/05/04 09:14:49;;;;;;;4.53;3.83;;;;;;;20.83;38.70;97918.22;4977701;28;20089;-79
2021/05/04 09:17:31;;;;;;;8.80;3.72;;;;;;;22.65;36.07;97901.00;4972861;28;20394;-80
2021/05/04 09:20:26;;;;;;;10.85;3.35;;;;;;;22.08;36.23;97905.69;4972426;28;20034;-81
2021/05/04 09:23:08;;;;;;;4.30;3.33;;;;;;;21.97;36.55;97893.53;4972143;28;20023;-79
2021/05/04 09:25:38;;;;;;;10.48;3.50;;;;;;;22.79;37.05;97901.25;4970712;28;20031;-80
2021/05/04 09:28:10;;;;;;;4.55;2.90;;;;;;;22.56;35.10;97883.72;4971041;28;20030;-79
2021/05/04 09:30:37;;;;;;;8.82;2.75;;;;;;;21.57;37.16;97885.63;4971636;28;20458;-79
2021/05/04 09:33:10;;;;;;;2.45;2.20;;;;;;;21.45;38.59;97887.75;4973246;28;20166;-79
2021/05/04 09:35:37;;;;;;;6.00;3.22;;;;;;;22.26;37.85;97884.47;4971536;28;20061;-80
2021/05/04 09:38:07;;;;;;;7.60;3.63;;;;;;;20.86;39.61;97880.56;4972196;28;20039;-78
2021/05/04 09:40:36;;;;;;;6.82;3.22;;;;;;;19.81;43.11;97882.38;4970737;28;20023;-82
2021/05/04 09:43:09;;;;;;;5.00;3.22;;;;;;;19.91;42.44;97864.38;4971156;28;20023;-79
2021/05/04 09:45:37;;;;;;;7.80;3.42;;;;;;;22.32;38.66;97874.63;4969778;28;20038;-79
2021/05/04 09:48:23;;;;;;;5.32;2.45;;;;;;;23.48;34.49;97877.44;4971807;28;20030;-77
2021/05/04 09:51:03;;;;;;;2.10;1.73;;;;;;;23.75;32.20;97858.56;4978091;28;20039;-79
2021/05/04 09:56:05;;;;;;;0.90;0.73;;;;;;;23.72;30.29;97857.34;4972038;28;20053;-81
2021/05/04 09:58:30;;;;;;;2.30;1.10;;;;;;;24.67;28.50;97862.94;4971053;28;20022;-80
2021/05/04 10:00:57;;;;;;;3.97;1.13;;;;;;;23.78;28.22;97855.00;4969724;28;20034;-77
2021/05/04 10:03:23;;;;;;;2.97;0.90;;;;;;;24.01;28.73;97847.25;4970706;28;20438;-79
2021/05/04 10:05:50;;;;;;;0.68;0.68;;;;;;;21.95;30.78;97829.03;4970869;28;20926;-83
2021/05/04 10:08:16;;;;;;;1.95;0.60;;;;;;;22.00;31.33;97831.50;4973681;28;20023;-83
2021/05/04 10:10:42;;;;;;;1.60;0.80;;;;;;;23.11;29.90;97829.13;4973765;28;20034;-80
2021/05/04 10:13:08;;;;;;;3.30;0.68;;;;;;;22.46;31.36;97834.97;4976239;28;20030;-79
2021/05/04 10:15:34;;;;;;;1.73;0.82;;;;;;;22.28;30.84;97826.38;4968542;28;20045;-78
2021/05/04 10:18:00;;;;;;;1.45;0.80;;;;;;;24.33;29.89;97825.97;4970820;28;20624;-79
2021/05/04 10:20:27;;;;;;;1.25;0.98;;;;;;;25.17;28.99;97816.44;4970708;28;20037;-78
2021/05/04 10:22:54;;;;;;;2.85;0.80;;;;;;;25.21;27.14;97817.25;4969277;28;20031;-78
2021/05/04 10:25:21;;;;;;;1.38;1.02;;;;;;;25.60;27.02;97822.97;4969031;28;20471;-77
2021/05/04 10:27:55;;;;;;;2.05;0.90;;;;;;;25.45;27.23;97810.91;4970866;28;20030;-76
2021/05/04 10:30:23;;;;;;;2.20;1.05;;;;;;;25.25;27.36;97814.47;4970764;28;20023;-77
2021/05/04 10:32:57;;;;;;;3.17;0.98;;;;;;;24.00;27.86;97810.09;4969716;28;20122;-78
2021/05/04 10:35:28;;;;;;;1.77;0.77;;;;;;;24.16;29.12;97804.25;4968218;28;20660;-78
2021/05/04 10:38:08;;;;;;;1.08;0.77;;;;;;;23.23;30.71;97798.97;4970261;28;20070;-75
2021/05/04 10:40:40;;;;;;;1.38;1.08;;;;;;;21.48;32.84;97797.94;4965227;28;20041;-78
2021/05/04 10:43:20;;;;;;;1.83;0.90;;;;;;;21.78;33.48;97790.50;4969651;28;20399;-76
2021/05/04 10:45:46;;;;;;;1.75;0.88;;;;;;;21.65;32.65;97791.88;4969495;28;20031;-76
2021/05/04 10:48:11;;;;;;;1.88;0.98;;;;;;;21.28;34.45;97783.25;4970311;28;20037;-76
2021/05/04 10:50:55;;;;;;;1.60;1.00;;;;;;;21.00;33.95;97777.94;4969425;28;20030;-75
2021/05/04 10:53:27;;;;;;;1.60;1.05;;;;;;;20.95;35.34;97786.59;4969380;28;20114;-76
2021/05/04 10:55:53;;;;;;;2.20;1.95;;;;;;;20.87;35.03;97787.59;4967213;28;20034;-76
2021/05/04 10:58:25;;;;;;;1.38;1.00;;;;;;;20.34;35.32;97791.22;4968434;28;20035;-75
2021/05/04 11:00:53;;;;;;;3.83;1.08;;;;;;;20.45;35.74;97786.72;4968963;28;20038;-75
2021/05/04 11:05:56;;;;;;;1.52;0.70;;;;;;;20.63;35.72;97780.38;4963043;28;20061;-78
2021/05/04 11:08:22;;;;;;;1.45;0.90;;;;;;;19.61;36.54;97777.94;4974566;28;20033;-75
2021/05/04 11:11:21;;;;;;;2.63;1.17;;;;;;;19.48;36.83;97773.69;4968258;28;20100;-79
2021/05/04 11:14:04;;;;;;;1.48;1.30;;;;;;;19.88;36.74;97782.59;4967966;28;20034;-78
2021/05/04 11:16:45;;;;;;;2.53;0.93;;;;;;;19.72;36.48;97779.84;4966896;28;20041;-76
2021/05/04 11:19:25;;;;;;;1.80;0.90;;;;;;;19.81;37.11;97768.53;4968387;28;20238;-78
2021/05/04 11:21:59;;;;;;;3.78;1.30;;;;;;;19.80;36.12;97760.59;4967162;28;20562;-79
2021/05/04 11:24:31;;;;;;;3.38;0.90;;;;;;;19.60;36.00;97756.94;4958732;28;20392;-78
2021/05/04 11:27:18;;;;;;;3.03;1.60;;;;;;;19.51;36.64;97761.88;4968029;28;20019;-78
2021/05/04 11:29:47;;;;;;;;;;;;;;;19.75;36.48;97767.22;4968715;28;20034;-76
2021/05/04 11:32:21;;;;;;;1.35;1.00;;;;;;;20.02;34.62;97757.94;4966149;28;19941;-78
2021/05/04 11:34:50;;;;;;;1.60;0.90;;;;;;;20.04;35.33;97754.81;4967773;28;20395;-78
2021/05/04 11:37:18;;;;;;;2.90;1.02;;;;;;;19.57;35.43;97743.78;4968179;28;20064;-76
2021/05/04 11:39:54;;;;;;;1.95;1.25;;;;;;;19.65;34.68;97751.09;4968211;28;20046;-78
2021/05/04 11:42:21;;;;;;;1.75;1.20;;;;;;;19.61;35.17;97744.66;4968113;28;20030;-76